METAR Data
IDs: Format: Raw Decoded Include TAF

Data at: 1914 UTC 14 Dec 2018

KHRX 141855Z AUTO 35014G21KT 10SM CLR 11/M12 A3032 RMK AO2 T01051125
KHRX 141835Z AUTO 36017G21KT 10SM CLR 10/M13 A3032 RMK AO2 T00991129
KHRX 141815Z AUTO 35020KT 10SM CLR 10/M13 A3033 RMK AO2 T00951132
KHRX 141755Z AUTO 35020G26KT 10SM CLR 09/M13 A3033 RMK AO2 T00931134 10095 21060
KHRX 141735Z AUTO 36017G22KT 10SM CLR 09/M14 A3033 RMK AO2 T00911137
KHRX 141715Z AUTO 36015G21KT 10SM CLR 09/M14 A3033 RMK AO2 T00851139
KHRX 141655Z AUTO 36016KT 5SM HZ CLR 07/M13 A3034 RMK AO2 T00701126
KHRX 141635Z AUTO 35015G18KT 7SM CLR 06/M13 A3033 RMK AO2 T00621126
KHRX 141615Z AUTO 33017KT 10SM CLR 05/M12 A3033 RMK AO2 T00511119
KHRX 141555Z AUTO 33014G20KT 7SM CLR 04/M12 A3033 RMK AO2 T00381120
KHRX 141535Z AUTO 32014KT 10SM CLR 02/M12 A3032 RMK AO2 T00221119
KHRX 141515Z AUTO 32011KT 7SM CLR 01/M11 A3032 RMK AO2 T00071115
KHRX 141455Z AUTO 32012KT 7SM CLR M01/M12 A3031 RMK AO2 T10081117
KHRX 141435Z AUTO 31012KT 10SM CLR M03/M12 A3031 RMK AO2 T10271118
KHRX 141415Z AUTO 31012KT 7SM CLR M04/M12 A3030 RMK AO2 T10401120
KHRX 141355Z AUTO 31013KT 7SM CLR M05/M12 A3030 RMK AO2 T10501121
KHRX 141335Z AUTO 31011KT 10SM CLR M05/M12 A3029 RMK AO2 T10511120
KHRX 141315Z AUTO 32009KT 10SM CLR M05/M12 A3029 RMK AO2 T10551120
KHRX 141255Z AUTO 32008KT 7SM CLR M06/M12 A3029 RMK AO2 T10601120
KHRX 141235Z AUTO 32009KT 10SM CLR M05/M12 A3029 RMK AO2 T10541120
KHRX 141215Z AUTO 32012KT 10SM CLR M05/M12 A3028 RMK AO2 LTG DSNT E T10471116
KHRX 141155Z AUTO 31012KT 7SM CLR M05/M11 A3027 RMK AO2 T10501115 11025 21066
KHRX 141135Z AUTO 32012KT 10SM CLR M05/M11 A3027 RMK AO2 T10521114
KHRX 141115Z AUTO 32013KT 10SM CLR M04/M11 A3026 RMK AO2 T10451113
KHRX 141055Z AUTO 31013KT 10SM CLR M05/M11 A3026 RMK AO2 T10481111
KHRX 141035Z AUTO 31011KT 10SM CLR M05/M11 A3026 RMK AO2 T10541112
KHRX 141015Z AUTO 29010KT 10SM CLR M06/M11 A3026 RMK AO2 T10611112
KHRX 140955Z AUTO 30006KT 10SM CLR M06/M12 A3027 RMK AO2 T10651117
KHRX 140935Z AUTO 30004KT 7SM CLR M06/M12 A3027 RMK AO2 T10621116
KHRX 140915Z AUTO 31007KT 5SM HZ CLR M05/M11 A3027 RMK AO2 T10511115
KHRX 140855Z AUTO 31009KT 7SM CLR M05/M11 A3027 RMK AO2 T10471115
KHRX 140835Z AUTO 31012KT 10SM CLR M04/M11 A3026 RMK AO2 T10451114
KHRX 140815Z AUTO 32012KT 10SM CLR M04/M11 A3026 RMK AO2 T10451115
KHRX 140755Z AUTO 31011KT 10SM CLR M04/M11 A3026 RMK AO2 T10411115
KHRX 140735Z AUTO 32011KT 10SM CLR M04/M11 A3026 RMK AO2 T10361115
KHRX 140715Z AUTO 32011KT 10SM CLR M04/M11 A3026 RMK AO2 T10381115
KHRX 140655Z AUTO 32013KT 7SM CLR M04/M11 A3026 RMK AO2 T10411114
KHRX 140635Z AUTO 32010KT 10SM CLR M04/M11 A3026 RMK AO2 T10451115
KHRX 140615Z AUTO 31010KT 10SM CLR M04/M12 A3026 RMK AO2 T10451116
KHRX 140555Z AUTO 32010KT 10SM CLR M02/M11 A3026 RMK AO2 T10221114 10048 21025 400971025
KHRX 140535Z AUTO 33014KT 10SM CLR M01/M11 A3025 RMK AO2 T10121113
KHRX 140515Z AUTO 33011KT 10SM CLR M02/M11 A3024 RMK AO2 T10211115
KHRX 140455Z AUTO 32010KT 10SM CLR M02/M11 A3025 RMK AO2 T10201115
KHRX 140435Z AUTO 31010KT 10SM CLR M02/M12 A3024 RMK AO2 T10231117
KHRX 140415Z AUTO 32009KT 10SM CLR M02/M12 A3024 RMK AO2 T10221118
KHRX 140355Z AUTO 32011KT 7SM CLR M01/M12 A3023 RMK AO2 T10151117
KHRX 140335Z AUTO 33010KT 10SM CLR 00/M12 A3022 RMK AO2 T10011117
KHRX 140315Z AUTO 34010KT 7SM CLR 00/M12 A3021 RMK AO2 T00001118
KHRX 140255Z AUTO 34010KT 10SM CLR 01/M12 A3021 RMK AO2 T00051120
KHRX 140235Z AUTO 35011G16KT 10SM CLR 01/M12 A3020 RMK AO2 T00121123
KHRX 140215Z AUTO 35013KT 7SM CLR 02/M12 A3019 RMK AO2 T00191125
KHRX 140155Z AUTO 35014KT 7SM CLR 02/M12 A3018 RMK AO2 T00241125
KHRX 140135Z AUTO 35015KT 10SM CLR 03/M13 A3018 RMK AO2 T00281130
KHRX 140115Z AUTO 35017G21KT 5SM HZ CLR 03/M13 A3017 RMK AO2 T00301130
KHRX 140055Z AUTO 34016KT 10SM CLR 03/M13 A3016 RMK AO2 T00321127
KHRX 140035Z AUTO 34018G22KT 10SM CLR 04/M13 A3015 RMK AO2 T00371127
KHRX 140015Z AUTO 35020G24KT 10SM CLR 05/M13 A3014 RMK AO2 T00461129
KHRX 132355Z AUTO 35021G24KT 10SM CLR 05/M13 A3013 RMK AO2 T00481131 10085 20048
KHRX 132335Z AUTO 35025G30KT 7SM CLR 06/M13 A3012 RMK AO2 T00561132
KHRX 132315Z AUTO 35030G37KT 7SM CLR 07/M13 A3011 RMK AO2 T00651133
KHRX 132255Z AUTO 35030G36KT 7SM CLR 07/M13 A3011 RMK AO2 T00701135
KHRX 132235Z AUTO 35028G36KT 7SM CLR 08/M13 A3011 RMK AO2 T00751131
KHRX 132215Z AUTO 35034G41KT 7SM CLR 08/M13 A3010 RMK AO2 T00761127
KHRX 132155Z AUTO 34037G41KT 7SM CLR 08/M13 A3009 RMK AO2 T00801128
KHRX 132135Z AUTO 36032G41KT 10SM CLR 08/M11 A3009 RMK AO2 T00811110
KHRX 132115Z AUTO 36031G40KT 10SM CLR 08/M11 A3009 RMK AO2 LTG DSNT E T00821112
KHRX 132055Z AUTO 35034G41KT 10SM CLR 08/M11 A3008 RMK AO2 LTG DSNT E T00831113
KHRX 132035Z AUTO 36034G44KT 7SM CLR 08/M11 A3008 RMK AO2 LTG DSNT E T00831109
KHRX 132015Z AUTO 36031G44KT 7SM CLR 08/M10 A3007 RMK AO2 T00801102
KHRX 131955Z AUTO 36034G44KT 7SM CLR 08/M09 A3007 RMK AO2 LTG DSNT E T00791093
KHRX 131935Z AUTO 36035G46KT 4SM HZ CLR 08/M09 A3007 RMK AO2 LTG DSNT E T00751086
KHRX 131915Z AUTO 36038G49KT 2SM HZ CLR 08/M09 A3007 RMK AO2 VIS 1V5 LTG DSNT E T00751088
KHRX 131855Z AUTO 36034G41KT 5SM HZ CLR 07/M07 A3008 RMK AO2 T00711074
KHRX 131835Z AUTO 36031G42KT 7SM CLR 06/M07 A3009 RMK AO2 T00621070
KHRX 131815Z AUTO 36035G43KT 5SM HZ CLR 05/M08 A3009 RMK AO2 T00531076
KHRX 131755Z AUTO 35031G41KT 10SM CLR 05/M07 A3009 RMK AO2 T00501069 10051 20041
KHRX 131735Z AUTO 36031G43KT 7SM CLR 05/M07 A3009 RMK AO2 T00501066
KHRX 131715Z AUTO 36031G41KT 7SM CLR 05/M07 A3008 RMK AO2 T00501066
KHRX 131655Z AUTO 36030G45KT 3SM HZ CLR 05/M07 A3007 RMK AO2 LTG DSNT E T00481070
KHRX 131635Z AUTO 36037G45KT 5SM HZ SCT110 05/M08 A3006 RMK AO2 T00501077
KHRX 131615Z AUTO 36033G46KT 5SM HZ BKN100 OVC120 05/M08 A3004 RMK AO2 T00471081
KHRX 131555Z AUTO 36034G42KT 7SM BKN100 BKN120 05/M08 A3003 RMK AO2 T00451082
KHRX 131535Z AUTO 36030G44KT 3SM HZ BKN100 BKN120 05/M08 A3002 RMK AO2 T00451077
KHRX 131515Z AUTO 36035G45KT 3SM HZ SCT002 SCT040 BKN100 05/M07 A3000 RMK AO2 T00451074
KHRX 131455Z AUTO 36037G42KT 5SM HZ SCT070 BKN080 BKN100 04/M07 A2999 RMK AO2 T00441066
KHRX 131435Z AUTO 36033G47KT 3SM HZ SCT033 BKN070 OVC100 04/M06 A2998 RMK AO2 T00441059
KHRX 131415Z AUTO 36032G39KT 7SM SCT034 SCT041 OVC090 04/M05 A2996 RMK AO2 T00421050
KHRX 131355Z AUTO 01031G40KT 7SM OVC090 04/M04 A2995 RMK AO2 T00411039
KHRX 131335Z AUTO 36033G43KT 10SM -RA OVC090 04/M03 A2994 RMK AO2 T00411027
KHRX 131315Z AUTO 01034G42KT 10SM SCT036 SCT055 OVC090 04/M02 A2991 RMK AO2 T00411022
KHRX 131255Z AUTO 01030G44KT 10SM OVC090 04/M02 A2990 RMK AO2 T00431022
KHRX 131240Z AUTO 01030G44KT 10SM SCT034 OVC090 04/M03 A2989 RMK AO2 T00431030
KHRX 131215Z AUTO 36037G46KT 10SM SCT032 OVC110 04/M02 A2987 RMK AO2 T00421021
KHRX 131155Z AUTO 01033G42KT 7SM OVC110 04/M01 A2985 RMK AO2 T00421015 10097 20042
KHRX 131135Z AUTO 01029G43KT 10SM SCT028 OVC110 04/M01 A2983 RMK AO2 T00441012
KHRX 131115Z AUTO 01036G42KT 7SM SCT026 BKN110 05/M01 A2980 RMK AO2 T00451011
KHRX 131055Z AUTO 36030G44KT 5SM HZ SCT026 SCT110 04/M01 A2978 RMK AO2 T00421015
KHRX 131035Z AUTO 01032G43KT 5SM HZ CLR 04/M02 A2977 RMK AO2 T00421021
KHRX 131015Z AUTO 01031G38KT 7SM CLR 04/M03 A2977 RMK AO2 T00431030
KHRX 130955Z AUTO 01027G39KT 5SM HZ SCT075 05/M04 A2977 RMK AO2 T00481036
KHRX 130935Z AUTO 01030G36KT 5SM HZ SCT001 SCT075 BKN090 05/M03 A2976 RMK AO2 T00531031
KHRX 130915Z AUTO 36027G34KT 3SM HZ SCT001 BKN100 OVC110 07/M06 A2975 RMK AO2 LTG DSNT E T00661060
KHRX 130855Z AUTO 36022G26KT 10SM OVC110 08/M08 A2974 RMK AO2 T00751077
KHRX 130835Z AUTO 36026G34KT 7SM BKN120 09/M07 A2973 RMK AO2 T00861068
KHRX 130815Z AUTO 34021G27KT 10SM SCT120 09/M05 A2970 RMK AO2 LTG DSNT E T00871048
KHRX 130755Z AUTO 30014KT 7SM SCT120 07/M03 A2967 RMK AO2 T00651030
KHRX 130735Z AUTO 27011KT 7SM CLR 06/M03 A2967 RMK AO2 T00631030
KHRX 130715Z AUTO 28010KT 10SM CLR 07/M03 A2966 RMK AO2 T00671026